Boston, Massachusetts
Traffic Map
Current Weather Conditions
Boston, Massachusetts
Overcast
Overcast
58°
Feels Like: 58°
Wind Chill: 58° Ceiling: 4500
Heat Index: 58° Visibility: 10mi
Dew Point: 56° Wind: 16mph
Humidity: 93% Direction: 200° (SSW)
Pressure: 29.14in Gusts: 0mph
Raw Report DataKBOS 191454Z 20014KT 10SM SCT016 BKN045 OVC050 14/13 A2914 RMK AO2 RAE54 SLP867 P0004 60009 T01440133 58023
Traffic Incident Summary
Active as of:
Severity:
Category:
InformationThere was an issue retrieving the traffic information for this location. Please try a different location or try again shortly.
Advertisements